Time;durP1;ratioP1;P1;durP2;ratioP2;P2;SDS_P1;SDS_P2;PMS_P1;PMS_P2;Temp;Humidity;BMP_temperature;BMP_pressure;BME280_temperature;BME280_humidity;BME280_pressure;Samples;Min_cycle;Max_cycle;Signal;HPM_P1;HPM_P2
2021/04/09 00:00:41;;;;;;;27.03;12.33;;;;;;;1.18;53.86;101389.16;126219;1096;104175;-77
2021/04/09 00:03:16;;;;;;;26.60;12.73;;;;;;;1.22;54.08;101391.25;126244;1096;105498;-77
2021/04/09 00:05:46;;;;;;;27.07;11.67;;;;;;;1.18;54.09;101394.33;126214;1099;110922;-77
2021/04/09 00:08:15;;;;;;;26.47;11.93;;;;;;;1.10;53.95;101396.23;126321;1099;104698;-77
2021/04/09 00:10:46;;;;;;;29.57;12.03;;;;;;;1.08;53.96;101396.10;126264;1097;104257;-77
2021/04/09 00:13:16;;;;;;;27.35;11.95;;;;;;;1.07;54.34;101398.55;126286;1099;104229;-77
2021/04/09 00:15:45;;;;;;;28.10;12.30;;;;;;;1.04;54.18;101408.62;126213;1096;104139;-77
2021/04/09 00:18:24;;;;;;;26.97;12.23;;;;;;;1.00;54.33;101417.80;126239;1099;104139;-77
2021/04/09 00:21:05;;;;;;;30.33;13.10;;;;;;;0.93;54.33;101415.42;126302;1099;104300;-76
2021/04/09 00:23:34;;;;;;;28.33;12.83;;;;;;;0.88;54.77;101421.87;126244;1099;104178;-77
2021/04/09 00:26:05;;;;;;;25.47;12.53;;;;;;;0.86;54.67;101423.42;126150;1098;104133;-77
2021/04/09 00:28:38;;;;;;;28.17;12.47;;;;;;;0.82;54.73;101419.63;126307;1098;104198;-77
2021/04/09 00:31:08;;;;;;;27.93;12.73;;;;;;;0.79;54.43;101427.11;126295;1099;104195;-77
2021/04/09 00:33:36;;;;;;;27.80;12.00;;;;;;;0.81;54.73;101427.25;126309;1096;104134;-77
2021/04/09 00:36:06;;;;;;;29.50;13.33;;;;;;;0.78;54.52;101427.91;126241;1096;104153;-77
2021/04/09 00:38:35;;;;;;;29.93;13.23;;;;;;;0.79;55.03;101433.97;126238;1098;104331;-77
2021/04/09 00:41:05;;;;;;;27.53;12.03;;;;;;;0.81;55.09;101432.41;126192;1099;104175;-77
2021/04/09 00:43:34;;;;;;;25.77;12.53;;;;;;;0.83;54.98;101431.80;125732;1098;104264;-77
2021/04/09 00:46:07;;;;;;;30.93;13.13;;;;;;;0.85;55.61;101437.99;125294;1099;104143;-77
2021/04/09 00:48:36;;;;;;;31.57;13.40;;;;;;;0.85;55.47;101440.58;125203;1099;104306;-77
2021/04/09 00:51:07;;;;;;;27.50;11.90;;;;;;;0.84;55.19;101440.44;125134;1099;104675;-77
2021/04/09 00:53:41;;;;;;;26.33;11.80;;;;;;;0.84;55.26;101445.61;125262;1099;104255;-77
2021/04/09 00:56:19;;;;;;;27.63;11.90;;;;;;;0.85;55.31;101437.99;125546;1099;104297;-77
2021/04/09 00:58:48;;;;;;;25.43;11.83;;;;;;;0.88;55.32;101427.93;125765;1099;104297;-77
2021/04/09 01:01:20;;;;;;;29.13;12.60;;;;;;;0.93;55.28;101436.09;125692;1098;104456;-77
2021/04/09 01:03:52;;;;;;;24.87;11.63;;;;;;;0.98;55.23;101436.50;125635;1099;104217;-77
2021/04/09 01:06:22;;;;;;;29.63;12.60;;;;;;;1.01;55.33;101429.95;125242;1099;104281;-77
2021/04/09 01:08:52;;;;;;;28.07;12.27;;;;;;;1.06;55.35;101438.08;125204;1099;104252;-77
2021/04/09 01:11:21;;;;;;;24.80;11.03;;;;;;;1.08;55.87;101439.16;125243;1099;104207;-77
2021/04/09 01:13:50;;;;;;;26.63;11.37;;;;;;;1.07;55.45;101448.56;126094;1099;104710;-77
2021/04/09 01:16:28;;;;;;;26.07;10.93;;;;;;;1.05;55.48;101446.63;126190;1096;104325;-77
2021/04/09 01:19:11;;;;;;;27.73;11.73;;;;;;;1.06;55.50;101446.77;126264;1099;104136;-77
2021/04/09 01:21:47;;;;;;;30.63;11.87;;;;;;;1.06;55.55;101454.52;126168;1099;104219;-77
2021/04/09 01:24:43;;;;;;;25.97;10.93;;;;;;;1.07;55.75;101450.25;126292;1099;104621;-77
2021/04/09 01:27:44;;;;;;;26.30;11.37;;;;;;;1.09;55.77;101451.28;126207;1098;118139;-76
2021/04/09 01:30:33;;;;;;;25.10;10.83;;;;;;;1.11;55.96;101451.42;126178;1097;104785;-76
2021/04/09 01:33:04;;;;;;;23.70;10.60;;;;;;;1.09;55.77;101456.45;126273;1099;104137;-76
2021/04/09 01:35:35;;;;;;;26.10;11.27;;;;;;;1.07;55.92;101451.14;126207;1096;104153;-76
2021/04/09 01:38:08;;;;;;;24.00;10.77;;;;;;;1.09;55.65;101459.03;126190;1099;104226;-76
2021/04/09 01:40:41;;;;;;;22.02;10.10;;;;;;;1.03;55.89;101464.59;126260;1096;104140;-76
2021/04/09 01:43:15;;;;;;;25.30;11.40;;;;;;;0.96;55.52;101467.38;126245;1096;104216;-76
2021/04/09 01:45:45;;;;;;;25.30;10.87;;;;;;;0.89;56.03;101473.69;126238;1096;104169;-76
2021/04/09 01:48:16;;;;;;;28.13;10.87;;;;;;;0.83;55.73;101470.55;126262;1099;104149;-76
2021/04/09 01:50:47;;;;;;;26.67;10.83;;;;;;;0.83;56.25;101474.83;126285;1099;104143;-77
2021/04/09 01:53:17;;;;;;;24.97;10.77;;;;;;;0.82;56.07;101483.33;126296;1099;104695;-77
2021/04/09 01:55:48;;;;;;;23.30;10.43;;;;;;;0.82;55.97;101484.23;126205;1099;104185;-77
2021/04/09 01:58:19;;;;;;;27.70;11.10;;;;;;;0.81;55.60;101479.85;126323;1096;105730;-77
2021/04/09 02:00:48;;;;;;;23.60;10.40;;;;;;;0.81;56.05;101482.44;126286;1096;104205;-77
2021/04/09 02:03:21;;;;;;;25.47;10.57;;;;;;;0.82;56.65;101488.50;126271;1096;104149;-77
2021/04/09 02:05:53;;;;;;;22.33;9.97;;;;;;;0.81;56.69;101492.77;126273;1096;104205;-77
2021/04/09 02:08:24;;;;;;;24.13;10.53;;;;;;;0.80;56.34;101480.61;126281;1097;104220;-77
2021/04/09 02:10:58;;;;;;;25.23;10.67;;;;;;;0.81;56.46;101486.67;126305;1096;104140;-77
2021/04/09 02:13:29;;;;;;;25.17;9.70;;;;;;;0.82;56.28;101493.67;126153;1099;104216;-77
2021/04/09 02:16:02;;;;;;;24.67;10.40;;;;;;;0.81;56.67;101497.02;126108;1099;104179;-77
2021/04/09 02:18:33;;;;;;;26.40;10.90;;;;;;;0.82;56.81;101493.67;126030;1099;118709;-77
2021/04/09 02:21:05;;;;;;;21.73;9.70;;;;;;;0.85;56.27;101499.11;126139;1099;104319;-77
2021/04/09 02:23:34;;;;;;;23.90;10.20;;;;;;;0.85;56.49;101494.84;126184;1099;104146;-77
2021/04/09 02:26:04;;;;;;;24.40;10.43;;;;;;;0.85;56.42;101505.18;126181;1099;104235;-76
2021/04/09 02:28:34;;;;;;;21.80;9.15;;;;;;;0.84;56.60;101502.45;126105;1099;106946;-76
2021/04/09 02:31:05;;;;;;;23.20;9.97;;;;;;;0.85;56.49;101505.18;125247;1099;104220;-77
2021/04/09 02:33:36;;;;;;;27.80;10.70;;;;;;;0.87;56.97;101508.83;126129;1099;104409;-76
2021/04/09 02:36:10;;;;;;;22.93;9.13;;;;;;;0.87;56.63;101511.42;126136;1099;104140;-77
2021/04/09 02:38:42;;;;;;;23.40;9.37;;;;;;;0.89;56.91;101507.28;125978;1099;104200;-77
2021/04/09 02:41:12;;;;;;;24.53;9.90;;;;;;;0.91;56.92;101511.70;126153;1099;104153;-77
2021/04/09 02:43:42;;;;;;;24.43;9.67;;;;;;;0.93;56.60;101521.38;126226;1099;104306;-77
2021/04/09 02:46:16;;;;;;;24.60;10.47;;;;;;;0.94;56.68;101524.90;126239;1096;104197;-77
2021/04/09 02:48:53;;;;;;;25.62;9.45;;;;;;;0.91;56.97;101525.52;126252;1096;104149;-77
2021/04/09 02:51:24;;;;;;;22.57;10.70;;;;;;;0.88;56.55;101527.82;126276;1099;104261;-77
2021/04/09 02:53:56;;;;;;;23.67;8.90;;;;;;;0.83;57.35;101532.57;126272;1099;104175;-77
2021/04/09 02:56:27;;;;;;;20.03;8.90;;;;;;;0.82;57.40;101532.42;126195;1099;104203;-77
2021/04/09 02:58:57;;;;;;;20.70;8.73;;;;;;;0.81;56.87;101538.36;126144;1096;104190;-77
2021/04/09 03:01:27;;;;;;;24.40;9.67;;;;;;;0.79;57.43;101537.31;126113;1096;104169;-77
2021/04/09 03:03:56;;;;;;;21.20;9.97;;;;;;;0.78;57.16;101540.66;126042;1098;104563;-77
2021/04/09 03:06:27;;;;;;;24.37;9.73;;;;;;;0.76;57.12;101543.09;126050;1096;104177;-77
2021/04/09 03:09:23;;;;;;;20.50;9.17;;;;;;;0.76;57.40;101549.95;125951;1096;104218;-77
2021/04/09 03:11:52;;;;;;;25.07;8.93;;;;;;;0.72;57.07;101543.61;125991;1099;104315;-77
2021/04/09 03:14:21;;;;;;;23.13;9.43;;;;;;;0.70;57.35;101553.80;126127;1099;104203;-77
2021/04/09 03:16:58;;;;;;;23.37;9.30;;;;;;;0.69;57.30;101544.22;126224;1099;104155;-76
2021/04/09 03:19:27;;;;;;;21.57;9.10;;;;;;;0.68;57.60;101555.31;126217;1097;102818;-77
2021/04/09 03:21:56;;;;;;;25.20;9.03;;;;;;;0.68;57.91;101555.31;126269;1099;104139;-77
2021/04/09 03:24:25;;;;;;;23.97;10.10;;;;;;;0.67;57.51;101556.10;126270;1098;104194;-76
2021/04/09 03:26:54;;;;;;;22.90;9.10;;;;;;;0.66;57.69;101558.55;126100;1099;104146;-76
2021/04/09 03:29:22;;;;;;;27.87;9.43;;;;;;;0.67;57.48;101556.10;126122;1099;104205;-77
2021/04/09 03:31:51;;;;;;;22.80;9.03;;;;;;;0.68;58.02;101554.41;126295;1099;104297;-76
2021/04/09 03:34:22;;;;;;;22.07;10.07;;;;;;;0.68;57.77;101555.31;126285;1099;104143;-76
2021/04/09 03:36:51;;;;;;;23.23;8.97;;;;;;;0.67;57.44;101566.44;126207;1099;104140;-77
2021/04/09 03:39:19;;;;;;;20.97;9.07;;;;;;;0.69;57.55;101566.58;126201;1099;104350;-77
2021/04/09 03:41:48;;;;;;;23.60;8.67;;;;;;;0.68;57.74;101562.16;126284;1099;104265;-77
2021/04/09 03:44:17;;;;;;;18.70;8.40;;;;;;;0.69;57.90;101570.06;126288;1099;104165;-77
2021/04/09 03:46:46;;;;;;;24.83;10.00;;;;;;;0.70;57.76;101577.05;126250;1099;104137;-77
2021/04/09 03:49:15;;;;;;;23.67;10.00;;;;;;;0.70;57.94;101581.29;126207;1099;104245;-77
2021/04/09 03:51:44;;;;;;;24.50;9.13;;;;;;;0.73;58.11;101589.33;126280;1099;104166;-78
2021/04/09 03:54:13;;;;;;;21.60;9.00;;;;;;;0.79;57.63;101588.99;126246;1099;104607;-78
2021/04/09 03:56:50;;;;;;;23.43;8.67;;;;;;;0.84;57.97;101585.14;126169;1099;104136;-78
2021/04/09 03:59:32;;;;;;;21.17;8.73;;;;;;;0.88;58.44;101592.42;126002;1099;104187;-75
2021/04/09 04:02:21;;;;;;;24.30;9.20;;;;;;;0.90;57.99;101596.05;126141;1099;104146;-77
2021/04/09 04:05:26;;;;;;;24.03;9.90;;;;;;;0.93;58.38;101598.02;125193;1099;104146;-77
2021/04/09 04:07:55;;;;;;;24.77;9.57;;;;;;;0.94;58.67;101599.84;125223;1099;104159;-77
2021/04/09 04:10:24;;;;;;;24.90;8.67;;;;;;;0.95;58.47;101607.73;125010;1099;104169;-77
2021/04/09 04:12:53;;;;;;;22.63;9.83;;;;;;;0.97;58.50;101603.61;125223;1099;104342;-77
2021/04/09 04:15:22;;;;;;;22.50;9.43;;;;;;;0.99;58.69;101611.50;125144;1099;104399;-77
2021/04/09 04:17:50;;;;;;;27.33;9.70;;;;;;;1.03;58.76;101603.27;125173;1099;104306;-77
2021/04/09 04:20:20;;;;;;;24.40;10.17;;;;;;;1.08;58.60;101607.17;125303;1099;104181;-75
2021/04/09 04:22:49;;;;;;;24.93;9.97;;;;;;;1.17;58.55;101612.25;125778;1099;104281;-76
2021/04/09 04:25:18;;;;;;;23.13;9.00;;;;;;;1.24;58.54;101612.95;125987;1096;104294;-76
2021/04/09 04:27:46;;;;;;;24.17;10.27;;;;;;;1.29;58.81;101612.48;126148;1096;104175;-76
2021/04/09 04:30:17;;;;;;;26.57;9.67;;;;;;;1.31;58.89;101616.09;126155;1099;104150;-76
2021/04/09 04:32:45;;;;;;;22.00;9.10;;;;;;;1.37;58.77;101621.83;126090;1099;104165;-75
2021/04/09 04:35:15;;;;;;;25.23;9.83;;;;;;;1.41;58.83;101624.83;126205;1099;104187;-76
2021/04/09 04:37:45;;;;;;;22.10;9.63;;;;;;;1.47;58.70;101621.90;126167;1099;104319;-76
2021/04/09 04:40:14;;;;;;;23.50;9.43;;;;;;;1.53;58.81;101618.97;126112;1099;104172;-76
2021/04/09 04:42:44;;;;;;;25.40;10.23;;;;;;;1.57;58.52;101621.97;126115;1095;104200;-76
2021/04/09 04:45:14;;;;;;;24.85;10.10;;;;;;;1.63;58.73;101634.52;125986;1099;104510;-76
2021/04/09 04:47:46;;;;;;;27.77;9.73;;;;;;;1.67;58.61;101636.63;126060;1096;104267;-76
2021/04/09 04:50:15;;;;;;;22.17;9.37;;;;;;;1.72;59.06;101640.52;126090;1099;104771;-77
2021/04/09 04:52:45;;;;;;;22.77;9.87;;;;;;;1.80;58.86;101642.11;126034;1099;107050;-76
2021/04/09 04:55:14;;;;;;;22.00;9.13;;;;;;;1.89;58.71;101642.03;126136;1099;104267;-76
2021/04/09 04:57:43;;;;;;;23.93;9.90;;;;;;;1.96;59.24;101646.05;125963;1098;104140;-76
2021/04/09 05:00:16;;;;;;;23.40;9.65;;;;;;;2.06;58.91;101646.11;126036;1099;104149;-77
2021/04/09 05:02:49;;;;;;;25.93;9.40;;;;;;;2.15;59.21;101644.33;126112;1098;105487;-76
2021/04/09 05:05:18;;;;;;;26.03;10.63;;;;;;;2.25;59.10;101651.21;126066;1096;104131;-76
2021/04/09 05:07:49;;;;;;;23.13;9.70;;;;;;;2.34;58.93;101659.78;126144;1096;104201;-76
2021/04/09 05:10:21;;;;;;;24.13;9.87;;;;;;;2.46;58.72;101659.03;126090;1099;104211;-75
2021/04/09 05:12:51;;;;;;;25.03;10.37;;;;;;;2.55;58.55;101659.83;126047;1096;104153;-76
2021/04/09 05:15:20;;;;;;;30.90;10.30;;;;;;;2.65;58.76;101666.70;125809;1099;104345;-75
2021/04/09 05:17:48;;;;;;;25.57;9.73;;;;;;;2.73;59.01;101672.55;125734;1099;104185;-76
2021/04/09 05:20:18;;;;;;;26.67;9.87;;;;;;;2.83;59.10;101675.16;125858;1099;104029;-76
2021/04/09 05:22:46;;;;;;;22.60;8.80;;;;;;;2.95;58.87;101672.72;125682;1099;104332;-76
2021/04/09 05:25:15;;;;;;;29.70;10.10;;;;;;;3.09;59.12;101686.86;125795;1099;104621;-76
2021/04/09 05:27:44;;;;;;;23.60;9.17;;;;;;;3.19;59.37;101687.73;125787;1099;104297;-77
2021/04/09 05:30:14;;;;;;;19.10;8.80;;;;;;;3.29;59.16;101691.10;125683;1099;104175;-76
2021/04/09 05:32:43;;;;;;;24.13;9.10;;;;;;;3.39;58.60;101696.30;125806;1099;104174;-76
2021/04/09 05:35:14;;;;;;;23.27;8.93;;;;;;;3.48;58.70;101697.06;125791;1099;104297;-78
2021/04/09 05:37:43;;;;;;;21.90;8.97;;;;;;;3.58;58.62;101691.88;125893;1099;104162;-76
2021/04/09 05:40:14;;;;;;;25.43;9.03;;;;;;;3.69;59.06;101694.42;125845;1099;104165;-76
2021/04/09 05:42:44;;;;;;;27.90;9.80;;;;;;;3.81;58.76;101699.73;125767;1099;104239;-76
2021/04/09 05:45:14;;;;;;;23.50;9.57;;;;;;;3.91;59.17;101698.02;125928;1099;104284;-76
2021/04/09 05:47:43;;;;;;;27.00;9.77;;;;;;;4.05;58.37;101703.41;126035;1099;104216;-77
2021/04/09 05:50:13;;;;;;;22.63;8.67;;;;;;;4.16;58.44;101702.61;125820;1099;104165;-76
2021/04/09 05:52:41;;;;;;;23.63;9.17;;;;;;;4.29;58.80;101707.98;125700;1099;104255;-77
2021/04/09 05:55:12;;;;;;;24.40;8.93;;;;;;;4.41;58.56;101704.55;125802;1099;104380;-76
2021/04/09 05:57:40;;;;;;;25.17;9.03;;;;;;;4.50;58.54;101701.01;125838;1099;104592;-76
2021/04/09 06:00:12;;;;;;;23.47;9.03;;;;;;;4.62;58.52;101698.45;125846;1099;104178;-76
2021/04/09 06:02:43;;;;;;;22.77;8.97;;;;;;;4.71;58.35;101705.18;125789;1099;104223;-76
2021/04/09 06:05:16;;;;;;;25.20;9.03;;;;;;;4.82;58.53;101704.32;125841;1099;104204;-77
2021/04/09 06:07:46;;;;;;;27.67;8.70;;;;;;;4.92;58.49;101708.53;125899;1099;104169;-76
2021/04/09 06:10:16;;;;;;;24.63;8.73;;;;;;;4.99;58.44;101705.63;125806;1099;104830;-77
2021/04/09 06:12:46;;;;;;;23.70;8.30;;;;;;;5.06;58.57;101705.30;125823;1099;104236;-76
2021/04/09 06:15:16;;;;;;;21.53;8.73;;;;;;;5.13;57.99;101697.19;126049;1099;104226;-77
2021/04/09 06:17:45;;;;;;;20.23;8.23;;;;;;;5.18;58.40;101718.36;125992;1099;104328;-77
2021/04/09 06:20:15;;;;;;;21.07;8.10;;;;;;;5.27;58.32;101710.36;125804;1099;104315;-77
2021/04/09 06:22:47;;;;;;;23.33;8.50;;;;;;;5.33;57.78;101708.19;125839;1099;104165;-76
2021/04/09 06:25:17;;;;;;;20.33;7.90;;;;;;;5.39;57.56;101714.80;125955;1096;104134;-76
2021/04/09 06:27:46;;;;;;;21.00;7.97;;;;;;;5.49;58.31;101710.29;126016;1096;105374;-77
2021/04/09 06:30:16;;;;;;;23.67;8.67;;;;;;;5.62;58.16;101712.11;125839;1096;104294;-77
2021/04/09 06:32:46;;;;;;;21.47;8.27;;;;;;;5.72;57.54;101718.13;125762;1097;104277;-77
2021/04/09 06:35:16;;;;;;;20.50;8.33;;;;;;;5.80;57.92;101715.16;125804;1099;104163;-77
2021/04/09 06:37:45;;;;;;;20.83;8.17;;;;;;;5.87;57.84;101718.34;125795;1099;104131;-77
2021/04/09 06:40:16;;;;;;;17.53;7.83;;;;;;;5.98;57.98;101719.16;125734;1099;104143;-77
2021/04/09 06:42:45;;;;;;;21.60;7.80;;;;;;;6.16;57.38;101718.73;125741;1099;105378;-79
2021/04/09 06:45:17;;;;;;;19.70;7.90;;;;;;;6.28;57.97;101714.41;125894;1096;104268;-80
2021/04/09 06:47:47;;;;;;;21.27;8.43;;;;;;;6.45;57.75;101718.20;125740;1099;104341;-77
2021/04/09 06:50:16;;;;;;;19.00;7.80;;;;;;;6.57;57.66;101718.19;125769;1099;105181;-77
2021/04/09 06:52:47;;;;;;;19.87;8.00;;;;;;;6.68;57.67;101722.45;125714;1096;104179;-76
2021/04/09 06:55:19;;;;;;;21.20;8.43;;;;;;;6.79;57.78;101713.70;125718;1099;104357;-77
2021/04/09 06:57:49;;;;;;;17.53;7.57;;;;;;;6.90;57.13;101718.75;125750;1099;104299;-77
2021/04/09 07:00:21;;;;;;;17.87;7.70;;;;;;;7.06;57.40;101724.25;125922;1099;104149;-77
2021/04/09 07:02:50;;;;;;;17.87;7.70;;;;;;;7.20;57.30;101715.66;125895;1099;104307;-78
2021/04/09 07:05:20;;;;;;;19.25;7.85;;;;;;;7.33;57.18;101716.50;125753;1099;104175;-77
2021/04/09 07:07:50;;;;;;;20.13;7.50;;;;;;;7.47;57.33;101712.22;125752;1096;104225;-78
2021/04/09 07:10:20;;;;;;;23.27;7.90;;;;;;;7.61;57.26;101716.66;125686;1099;104201;-79
2021/04/09 07:13:03;;;;;;;19.07;8.87;;;;;;;7.74;56.79;101720.98;125776;1096;104171;-79
2021/04/09 07:15:43;;;;;;;21.20;7.90;;;;;;;7.78;56.73;101716.89;126050;1099;111987;-78
2021/04/09 07:21:00;;;;;;;21.40;7.00;;;;;;;8.08;57.27;101723.22;125013;1099;104459;-78
2021/04/09 07:23:33;;;;;;;17.77;6.53;;;;;;;8.22;56.27;101724.12;125021;1099;104206;-77
2021/04/09 07:26:01;;;;;;;16.77;7.10;;;;;;;8.38;56.85;101736.46;125590;1099;104297;-77
2021/04/09 07:28:34;;;;;;;16.33;6.80;;;;;;;8.54;56.47;101736.69;125596;1099;105970;-77
2021/04/09 07:31:04;;;;;;;19.60;7.50;;;;;;;8.76;56.21;101731.09;124960;1102;104322;-78
2021/04/09 07:33:34;;;;;;;13.93;6.87;;;;;;;8.98;55.68;101732.42;124940;1102;104318;-77
2021/04/09 07:36:10;;;;;;;15.27;6.83;;;;;;;9.18;56.20;101734.55;124824;1102;107844;-77
2021/04/09 07:38:42;;;;;;;15.70;6.80;;;;;;;9.43;56.01;101727.28;124946;1102;104184;-77
2021/04/09 07:41:11;;;;;;;14.80;6.73;;;;;;;9.60;55.77;101734.42;124914;1102;104255;-77
2021/04/09 07:43:43;;;;;;;16.77;6.47;;;;;;;9.64;55.76;101725.91;124940;1102;104351;-77
2021/04/09 07:46:21;;;;;;;22.10;7.60;;;;;;;9.70;55.53;101722.76;124707;1102;105048;-79
2021/04/09 07:49:01;;;;;;;18.37;6.87;;;;;;;9.71;55.40;101737.69;124862;1102;104338;-77
2021/04/09 07:51:30;;;;;;;16.73;6.87;;;;;;;9.75;54.57;101730.89;124952;1101;104242;-79
2021/04/09 07:54:09;;;;;;;17.13;6.60;;;;;;;9.81;54.84;101732.14;125058;1102;104328;-79
2021/04/09 07:56:45;;;;;;;17.43;6.53;;;;;;;9.90;54.31;101729.17;125105;1102;106545;-77
2021/04/09 07:59:34;;;;;;;13.33;6.07;;;;;;;10.02;54.38;101723.70;124802;1102;104296;-78
2021/04/09 08:02:04;;;;;;;14.75;6.30;;;;;;;10.16;53.99;101724.50;125075;1102;105301;-78
2021/04/09 08:04:43;;;;;;;12.27;5.93;;;;;;;10.27;54.39;101726.03;125132;1102;104165;-78
2021/04/09 08:07:33;;;;;;;17.10;6.70;;;;;;;10.48;54.28;101730.70;125020;1102;110843;-79
2021/04/09 08:10:03;;;;;;;15.77;6.60;;;;;;;10.69;53.82;101724.02;124998;1102;104175;-77
2021/04/09 08:12:34;;;;;;;17.07;6.53;;;;;;;10.70;54.16;101731.05;125050;1102;104163;-78
2021/04/09 08:15:16;;;;;;;11.93;6.00;;;;;;;10.59;53.44;101725.22;124992;1099;104002;-79
2021/04/09 08:17:56;;;;;;;14.83;5.83;;;;;;;10.60;53.31;101720.89;125040;1100;104245;-79
2021/04/09 08:20:27;;;;;;;12.30;5.70;;;;;;;10.65;53.28;101723.77;125360;1099;104175;-78
2021/04/09 08:23:00;;;;;;;17.30;5.85;;;;;;;10.77;53.49;101720.08;125759;1099;104313;-78
2021/04/09 08:25:31;;;;;;;15.50;6.07;;;;;;;10.71;52.91;101725.00;125814;1099;104213;-77
2021/04/09 08:28:06;;;;;;;11.47;5.40;;;;;;;10.52;52.60;101720.47;125750;1099;104482;-78
2021/04/09 08:30:37;;;;;;;14.20;5.43;;;;;;;10.54;51.12;101726.70;125879;1099;104162;-78
2021/04/09 08:33:07;;;;;;;14.50;5.80;;;;;;;10.61;50.59;101718.35;125817;1098;104161;-77
2021/04/09 08:35:38;;;;;;;9.50;5.20;;;;;;;10.67;51.53;101711.63;125872;1099;105466;-77
2021/04/09 08:38:07;;;;;;;17.13;5.90;;;;;;;10.61;51.63;101713.10;125977;1096;104133;-78
2021/04/09 08:40:38;;;;;;;12.10;4.90;;;;;;;10.52;50.85;101712.59;125742;1100;104860;-79
2021/04/09 08:43:09;;;;;;;10.87;4.83;;;;;;;10.40;51.28;101714.53;126664;1096;104136;-78
2021/04/09 08:45:39;;;;;;;13.13;5.20;;;;;;;10.25;51.17;101709.28;125859;1096;104175;-77
2021/04/09 08:48:12;;;;;;;16.40;5.10;;;;;;;10.11;50.88;101705.88;125856;1097;104326;-79
2021/04/09 08:50:44;;;;;;;12.53;5.30;;;;;;;9.94;49.49;101725.00;125822;1099;104281;-78
2021/04/09 08:53:24;;;;;;;16.63;6.33;;;;;;;9.75;49.66;101717.79;125958;1099;104402;-77
2021/04/09 08:55:53;;;;;;;14.80;6.53;;;;;;;9.77;49.55;101722.31;125833;1098;104188;-78
2021/04/09 08:58:26;;;;;;;13.87;5.50;;;;;;;9.95;49.63;101708.45;125873;1096;104239;-79
2021/04/09 09:00:55;;;;;;;10.63;4.90;;;;;;;10.16;49.60;101714.01;125828;1099;104156;-77
2021/04/09 09:03:29;;;;;;;17.07;5.73;;;;;;;10.19;50.29;101711.56;125913;1096;104201;-77
2021/04/09 09:06:08;;;;;;;12.10;4.80;;;;;;;10.22;49.12;101716.98;125700;1099;104227;-78
2021/04/09 09:08:58;;;;;;;11.13;4.77;;;;;;;10.29;49.92;101716.52;125927;1099;104254;-78
2021/04/09 09:11:52;;;;;;;13.93;4.90;;;;;;;10.49;49.14;101708.91;125794;1099;104152;-77
2021/04/09 09:14:45;;;;;;;13.30;4.83;;;;;;;10.43;49.58;101712.97;125864;1099;104198;-78
2021/04/09 09:17:39;;;;;;;14.60;5.30;;;;;;;10.42;49.34;101705.94;126114;1096;104369;-77
2021/04/09 09:20:12;;;;;;;19.80;5.60;;;;;;;10.34;48.51;101717.70;125775;1099;104220;-78
2021/04/09 09:22:50;;;;;;;14.13;5.80;;;;;;;10.38;49.00;101716.18;125815;1096;104212;-78
2021/04/09 09:25:37;;;;;;;11.87;5.30;;;;;;;10.58;48.76;101706.76;125749;1096;104172;-78
2021/04/09 09:28:11;;;;;;;15.47;5.23;;;;;;;10.84;48.99;101699.41;125739;1096;104264;-75
2021/04/09 09:30:42;;;;;;;13.63;5.00;;;;;;;10.86;46.70;101693.44;126012;1099;104056;-76
2021/04/09 09:33:27;;;;;;;16.00;5.83;;;;;;;10.78;47.94;101703.52;125862;1099;104409;-78
2021/04/09 09:36:11;;;;;;;15.77;5.10;;;;;;;10.74;48.30;101701.54;125745;1099;104162;-76
2021/04/09 09:38:54;;;;;;;16.40;5.23;;;;;;;10.63;47.93;101713.19;125891;1096;104155;-76
2021/04/09 09:41:41;;;;;;;15.80;4.70;;;;;;;10.72;47.79;101705.81;125710;1098;104163;-76
2021/04/09 09:44:35;;;;;;;12.47;5.20;;;;;;;10.77;47.47;101699.08;126027;1096;104659;-76
2021/04/09 09:47:07;;;;;;;12.10;5.40;;;;;;;10.77;47.56;101701.70;125964;1096;104939;-75
2021/04/09 09:49:38;;;;;;;10.33;5.10;;;;;;;10.69;47.21;101697.77;126062;1098;104152;-76
2021/04/09 09:52:24;;;;;;;12.20;5.37;;;;;;;10.63;47.13;101702.69;125825;1099;104217;-76
2021/04/09 09:55:11;;;;;;;17.00;5.80;;;;;;;10.57;47.48;101702.35;125849;1099;104140;-76
2021/04/09 09:57:46;;;;;;;13.70;5.30;;;;;;;10.63;47.45;101705.31;125753;1099;104261;-76
2021/04/09 10:00:24;;;;;;;14.73;5.97;;;;;;;10.72;47.71;101700.56;125928;1099;104286;-75
2021/04/09 10:03:11;;;;;;;12.57;5.07;;;;;;;10.82;47.31;101691.45;126338;1099;104172;-77
2021/04/09 10:05:42;;;;;;;14.83;5.50;;;;;;;10.91;47.11;101691.05;125763;1096;104281;-77
2021/04/09 10:08:13;;;;;;;14.57;5.70;;;;;;;10.92;46.19;101700.72;125540;1099;105448;-78
2021/04/09 10:10:50;;;;;;;11.20;5.07;;;;;;;10.83;45.69;101692.34;125611;1097;104286;-77
2021/04/09 10:13:25;;;;;;;13.50;5.13;;;;;;;10.79;45.74;101693.91;125505;1099;104337;-77
2021/04/09 10:16:08;;;;;;;13.57;5.50;;;;;;;10.81;45.93;101692.27;125606;1099;104267;-78
2021/04/09 10:18:38;;;;;;;18.57;5.53;;;;;;;10.92;45.82;101688.52;125566;1099;104332;-78
2021/04/09 10:21:14;;;;;;;13.10;5.40;;;;;;;11.06;46.39;101685.69;125490;1099;104373;-78
2021/04/09 10:24:03;;;;;;;10.87;5.23;;;;;;;11.24;45.79;101688.39;126366;1099;104166;-77
2021/04/09 10:26:36;;;;;;;16.83;5.03;;;;;;;11.29;44.38;101690.41;125569;1099;104350;-78
2021/04/09 10:29:26;;;;;;;13.17;5.20;;;;;;;11.12;44.84;101671.14;124678;1102;104399;-77
2021/04/09 10:32:04;;;;;;;11.50;5.27;;;;;;;11.02;45.03;101673.23;124656;1105;104345;-77
2021/04/09 10:34:36;;;;;;;11.97;5.20;;;;;;;10.93;45.30;101679.78;124610;1105;104357;-76
2021/04/09 10:37:06;;;;;;;12.10;5.70;;;;;;;10.78;44.72;101672.02;124734;1105;104758;-78
2021/04/09 10:39:42;;;;;;;13.23;5.90;;;;;;;10.81;44.03;101667.73;124629;1105;104297;-77
2021/04/09 10:42:11;;;;;;;14.93;5.57;;;;;;;10.81;44.45;101672.98;124699;1105;104184;-77
2021/04/09 10:44:43;;;;;;;12.63;5.70;;;;;;;10.85;44.80;101673.23;124687;1105;104137;-76
2021/04/09 10:47:22;;;;;;;14.37;5.60;;;;;;;11.03;45.15;101665.44;124659;1105;104258;-77
2021/04/09 10:50:03;;;;;;;12.07;5.00;;;;;;;11.29;44.91;101660.62;124694;1105;104193;-77
2021/04/09 10:52:34;;;;;;;13.17;5.43;;;;;;;11.61;44.84;101663.96;124631;1106;104261;-76
2021/04/09 10:55:06;;;;;;;11.30;5.07;;;;;;;11.81;44.51;101650.09;124980;1099;104174;-77
2021/04/09 10:57:37;;;;;;;10.35;4.80;;;;;;;11.78;44.67;101649.95;125060;1102;104303;-78
2021/04/09 11:00:08;;;;;;;12.47;5.53;;;;;;;11.67;44.50;101651.13;125296;1099;104139;-76
2021/04/09 11:02:39;;;;;;;15.80;5.60;;;;;;;11.47;43.90;101660.67;125857;1099;104280;-75
2021/04/09 11:05:09;;;;;;;13.33;5.83;;;;;;;11.28;44.39;101662.36;125097;1099;104297;-76
2021/04/09 11:07:43;;;;;;;11.60;5.07;;;;;;;11.17;43.78;101659.98;125176;1099;104348;-76
2021/04/09 11:10:30;;;;;;;14.53;5.37;;;;;;;11.14;44.29;101656.39;125731;1099;104239;-76
2021/04/09 11:13:04;;;;;;;11.80;5.80;;;;;;;11.24;44.30;101662.12;125780;1099;104344;-78
2021/04/09 11:15:41;;;;;;;10.50;4.87;;;;;;;11.16;44.33;101661.72;125303;1099;104264;-77
2021/04/09 11:18:12;;;;;;;17.07;5.10;;;;;;;11.20;44.13;101658.41;126047;1099;104182;-78
2021/04/09 11:20:45;;;;;;;11.87;4.90;;;;;;;11.29;43.86;101651.00;125773;1099;104176;-77
2021/04/09 11:23:18;;;;;;;10.00;5.12;;;;;;;11.43;44.22;101649.08;125758;1099;104322;-77
2021/04/09 11:26:04;;;;;;;15.20;5.40;;;;;;;11.60;43.32;101651.66;125202;1099;104172;-79
2021/04/09 11:28:35;;;;;;;10.20;5.12;;;;;;;11.73;42.90;101645.28;125241;1099;104238;-78
2021/04/09 11:31:06;;;;;;;11.27;4.67;;;;;;;11.94;43.17;101645.47;125750;1099;104181;-77
2021/04/09 11:33:37;;;;;;;9.93;4.87;;;;;;;12.23;43.52;101636.31;125907;1099;104328;-78